Time;durP1;ratioP1;P1;durP2;ratioP2;P2;SDS_P1;SDS_P2;PMS_P1;PMS_P2;Temp;Humidity;BMP_temperature;BMP_pressure;BME280_temperature;BME280_humidity;BME280_pressure;Samples;Min_cycle;Max_cycle;Signal;HPM_P1;HPM_P2
2023/09/09 00:01:13;;;;;;;;;;;;;;;21.11;89.78;100845.47;6164898;23;19944;-84
2023/09/09 00:03:39;;;;;;;;;;;;;;;21.14;89.83;100847.69;6161696;23;19936;-84
2023/09/09 00:06:10;;;;;;;;;;;;;;;21.12;89.61;100844.44;6161883;23;19952;-82
2023/09/09 00:08:36;;;;;;;;;;;;;;;21.08;89.95;100845.91;6162927;23;19928;-83
2023/09/09 00:11:03;;;;;;;;;;;;;;;21.06;90.24;100855.94;6161841;23;19944;-83
2023/09/09 00:13:29;;;;;;;;;;;;;;;21.05;90.71;100851.66;6161175;23;20403;-83
2023/09/09 00:15:56;;;;;;;;;;;;;;;21.01;91.11;100853.94;6161474;23;19932;-81
2023/09/09 00:18:23;;;;;;;;;;;;;;;20.98;91.21;100859.69;6162821;23;19952;-83
2023/09/09 00:20:50;;;;;;;;;;;;;;;20.96;90.98;100852.97;6160294;23;19925;-81
2023/09/09 00:23:16;;;;;;;;;;;;;;;20.90;91.16;100856.50;6162111;23;19944;-81
2023/09/09 00:25:43;;;;;;;;;;;;;;;20.82;91.46;100850.41;6163011;23;19991;-82
2023/09/09 00:28:11;;;;;;;;;;;;;;;20.83;91.54;100851.22;6163401;23;19944;-82
2023/09/09 00:30:37;;;;;;;;;;;;;;;20.78;91.56;100851.09;6162812;23;19944;-81
2023/09/09 00:33:04;;;;;;;;;;;;;;;20.72;92.14;100859.94;6159878;23;19920;-80
2023/09/09 00:35:32;;;;;;;;;;;;;;;20.67;92.37;100851.81;6159145;23;19959;-80
2023/09/09 00:37:59;;;;;;;;;;;;;;;20.60;92.86;100851.84;6162740;23;19960;-82
2023/09/09 00:40:25;;;;;;;;;;;;;;;20.59;93.22;100854.72;6163347;23;19948;-81
2023/09/09 00:42:52;;;;;;;;;;;;;;;20.55;93.25;100846.34;6160958;23;20379;-80
2023/09/09 00:45:18;;;;;;;;;;;;;;;20.51;93.66;100847.81;6162020;23;19959;-81
2023/09/09 00:47:45;;;;;;;;;;;;;;;20.51;93.88;100845.16;6162513;23;19925;-79
2023/09/09 00:50:13;;;;;;;;;;;;;;;20.48;94.02;100848.25;6160535;23;19956;-80
2023/09/09 00:52:42;;;;;;;;;;;;;;;20.45;94.30;100854.00;6161793;23;19921;-83
2023/09/09 00:55:09;;;;;;;;;;;;;;;20.38;94.55;100847.91;6160863;23;19921;-82
2023/09/09 00:57:35;;;;;;;;;;;;;;;20.38;95.05;100847.91;6161042;23;20304;-80
2023/09/09 01:00:03;;;;;;;;;;;;;;;20.40;95.24;100846.66;6161092;23;19921;-82
2023/09/09 01:02:30;;;;;;;;;;;;;;;20.32;95.58;100848.75;6162133;23;19956;-84
2023/09/09 01:04:59;;;;;;;;;;;;;;;20.26;95.98;100834.50;6163006;23;19948;-80
2023/09/09 01:07:26;;;;;;;;;;;;;;;20.25;95.93;100847.97;6161578;23;19924;-80
2023/09/09 01:09:53;;;;;;;;;;;;;;;20.18;96.16;100848.84;6160696;23;19951;-81
2023/09/09 01:12:22;;;;;;;;;;;;;;;20.20;96.30;100841.47;6159799;23;19920;-79
2023/09/09 01:14:49;;;;;;;;;;;;;;;20.16;96.44;100848.22;6161514;23;19921;-83
2023/09/09 01:17:15;;;;;;;;;;;;;;;20.11;96.56;100850.72;6161709;23;19924;-80
2023/09/09 01:19:42;;;;;;;;;;;;;;;20.02;96.90;100848.50;6160776;23;19956;-82
2023/09/09 01:22:11;;;;;;;;;;;;;;;19.99;97.24;100849.75;6163619;23;19927;-80
2023/09/09 01:24:40;;;;;;;;;;;;;;;19.97;97.36;100846.50;6160871;23;19932;-80
2023/09/09 01:27:06;;;;;;;;;;;;;;;19.95;97.63;100843.22;6161818;23;19920;-83
2023/09/09 01:29:33;;;;;;;;;;;;;;;19.96;97.91;100850.19;6160639;23;19952;-81
2023/09/09 01:31:59;;;;;;;;;;;;;;;19.93;98.18;100845.28;6159205;23;19963;-78
2023/09/09 01:34:25;;;;;;;;;;;;;;;19.89;98.57;100844.06;6159606;23;20313;-81
2023/09/09 01:36:52;;;;;;;;;;;;;;;19.84;98.90;100844.75;6160002;23;19944;-80
2023/09/09 01:39:18;;;;;;;;;;;;;;;19.78;99.33;100842.13;6159603;23;20298;-80
2023/09/09 01:41:46;;;;;;;;;;;;;;;19.77;99.56;100838.63;6162293;23;20043;-83
2023/09/09 01:44:12;;;;;;;;;;;;;;;19.79;99.65;100847.22;6162037;23;20222;-82
2023/09/09 01:46:39;;;;;;;;;;;;;;;19.77;99.58;100851.91;6162353;23;19920;-82
2023/09/09 01:49:05;;;;;;;;;;;;;;;19.74;99.83;100846.22;6162468;23;19925;-84
2023/09/09 01:51:33;;;;;;;;;;;;;;;19.70;99.79;100845.00;6163320;23;19977;-83
2023/09/09 01:53:59;;;;;;;;;;;;;;;19.58;99.75;100847.47;6163067;23;19925;-82
2023/09/09 01:56:26;;;;;;;;;;;;;;;19.58;99.94;100851.97;6165037;23;20233;-82
2023/09/09 01:58:53;;;;;;;;;;;;;;;19.53;100.00;100848.09;6162417;23;19967;-82
2023/09/09 02:01:20;;;;;;;;;;;;;;;19.49;100.00;100851.34;6162496;23;19927;-80
2023/09/09 02:03:47;;;;;;;;;;;;;;;19.42;100.00;100859.34;6162829;23;19952;-82
2023/09/09 02:06:13;;;;;;;;;;;;;;;19.37;100.00;100850.41;6163315;23;19920;-82
2023/09/09 02:08:40;;;;;;;;;;;;;;;19.31;100.00;100865.31;6162695;23;19956;-83
2023/09/09 02:11:06;;;;;;;;;;;;;;;19.26;100.00;100859.00;6161570;23;19971;-80
2023/09/09 02:13:32;;;;;;;;;;;;;;;19.22;100.00;100858.59;6161707;23;19955;-81
2023/09/09 02:18:28;;;;;;;;;;;;;;;19.19;100.00;100853.69;6125692;23;19924;-78
2023/09/09 02:20:57;;;;;;;;;;;;;;;19.18;100.00;100857.38;6124424;23;19964;-79
2023/09/09 02:23:23;;;;;;;;;;;;;;;19.10;100.00;100857.56;6123956;23;19995;-78
2023/09/09 02:25:50;;;;;;;;;;;;;;;19.15;100.00;100853.28;6124965;23;19921;-77
2023/09/09 02:28:16;;;;;;;;;;;;;;;19.17;100.00;100850.44;6124081;23;19967;-79
2023/09/09 02:30:42;;;;;;;;;;;;;;;19.10;100.00;100849.63;6124801;23;19956;-79
2023/09/09 02:33:09;;;;;;;;;;;;;;;19.01;100.00;100856.16;6124288;23;20280;-78
2023/09/09 02:35:41;;;;;;;;;;;;;;;19.02;100.00;100849.81;6124906;23;19921;-77
2023/09/09 02:38:07;;;;;;;;;;;;;;;19.02;99.89;100848.00;6124394;23;19963;-77
2023/09/09 02:40:34;;;;;;;;;;;;;;;19.01;99.93;100845.53;6125142;23;20393;-76
2023/09/09 02:43:00;;;;;;;;;;;;;;;18.94;100.00;100848.19;6124455;23;19943;-76
2023/09/09 02:45:27;;;;;;;;;;;;;;;18.90;100.00;100853.09;6124277;23;20368;-77
2023/09/09 02:47:53;;;;;;;;;;;;;;;18.92;100.00;100854.72;6124612;23;19933;-79
2023/09/09 02:50:20;;;;;;;;;;;;;;;18.87;100.00;100848.22;6126421;23;19917;-77
2023/09/09 02:52:50;;;;;;;;;;;;;;;18.85;100.00;100852.09;6126152;23;20358;-76
2023/09/09 02:55:16;;;;;;;;;;;;;;;18.79;100.00;100848.44;6126799;23;19923;-76
2023/09/09 02:57:43;;;;;;;;;;;;;;;18.79;100.00;100847.63;6125363;23;19917;-77
2023/09/09 03:00:09;;;;;;;;;;;;;;;18.73;100.00;100857.19;6127277;23;19921;-77
2023/09/09 03:02:36;;;;;;;;;;;;;;;18.74;100.00;100860.66;6125550;23;20401;-79
2023/09/09 03:05:04;;;;;;;;;;;;;;;18.71;100.00;100851.28;6124896;23;19988;-79
2023/09/09 03:07:30;;;;;;;;;;;;;;;18.75;100.00;100855.16;6122871;23;19980;-77
2023/09/09 03:09:58;;;;;;;;;;;;;;;18.70;100.00;100846.19;6124125;23;19952;-79
2023/09/09 03:12:24;;;;;;;;;;;;;;;18.66;100.00;100858.22;6124479;23;19952;-78
2023/09/09 03:14:51;;;;;;;;;;;;;;;18.62;100.00;100863.09;6124492;23;20308;-79
2023/09/09 03:17:17;;;;;;;;;;;;;;;18.64;100.00;100863.72;6124406;23;19917;-79
2023/09/09 03:19:44;;;;;;;;;;;;;;;18.61;100.00;100853.50;6124311;23;19976;-77
2023/09/09 03:22:10;;;;;;;;;;;;;;;18.60;100.00;100859.84;6124095;23;19948;-78
2023/09/09 03:24:36;;;;;;;;;;;;;;;18.60;100.00;100864.28;6123904;23;20120;-76
2023/09/09 03:27:04;;;;;;;;;;;;;;;18.56;100.00;100863.88;6123926;23;20297;-79
2023/09/09 03:29:31;;;;;;;;;;;;;;;18.45;100.00;100870.59;6124197;23;19991;-79
2023/09/09 03:31:57;;;;;;;;;;;;;;;18.44;100.00;100868.13;6123905;23;19959;-79
2023/09/09 03:34:24;;;;;;;;;;;;;;;18.50;100.00;100869.97;6124114;23;19992;-79
2023/09/09 03:36:50;;;;;;;;;;;;;;;18.39;100.00;100862.66;6124555;23;19955;-79
2023/09/09 03:39:17;;;;;;;;;;;;;;;18.37;100.00;100859.38;6124698;23;19995;-79
2023/09/09 03:41:43;;;;;;;;;;;;;;;18.32;100.00;100859.16;6123581;23;19916;-79
2023/09/09 03:44:11;;;;;;;;;;;;;;;18.26;100.00;100860.78;6123797;23;19984;-79
2023/09/09 03:46:37;;;;;;;;;;;;;;;18.24;100.00;100861.00;6124121;23;19951;-81
2023/09/09 03:49:04;;;;;;;;;;;;;;;18.22;100.00;100860.38;6124007;23;19952;-79
2023/09/09 03:51:30;;;;;;;;;;;;;;;18.21;100.00;100871.97;6128467;23;19964;-80
2023/09/09 03:53:57;;;;;;;;;;;;;;;18.21;100.00;100869.34;6128883;23;19956;-79
2023/09/09 03:56:23;;;;;;;;;;;;;;;18.18;100.00;100867.06;6126749;23;19917;-79
2023/09/09 03:58:50;;;;;;;;;;;;;;;18.06;100.00;100862.56;6128002;23;19952;-78
2023/09/09 04:01:18;;;;;;;;;;;;;;;18.07;100.00;100872.94;6127862;23;19924;-81
2023/09/09 04:03:44;;;;;;;;;;;;;;;18.14;100.00;100873.78;6127318;23;19923;-78
2023/09/09 04:06:11;;;;;;;;;;;;;;;18.05;100.00;100867.03;6128592;23;19948;-81
2023/09/09 04:08:38;;;;;;;;;;;;;;;18.00;100.00;100879.22;6129639;23;19952;-78
2023/09/09 04:11:05;;;;;;;;;;;;;;;17.96;100.00;100878.03;6129944;23;19917;-79
2023/09/09 04:13:32;;;;;;;;;;;;;;;17.91;100.00;100865.38;6130498;23;19945;-79
2023/09/09 04:15:59;;;;;;;;;;;;;;;17.87;100.00;100866.78;6128776;23;20357;-79
2023/09/09 04:18:27;;;;;;;;;;;;;;;17.97;100.00;100866.38;6126047;23;19949;-79
2023/09/09 04:20:54;;;;;;;;;;;;;;;17.89;100.00;100864.75;6125990;23;19995;-78
2023/09/09 04:23:20;;;;;;;;;;;;;;;17.89;100.00;100867.41;6127861;23;19917;-79
2023/09/09 04:25:47;;;;;;;;;;;;;;;17.91;100.00;100865.38;6126884;23;19955;-79
2023/09/09 04:28:13;;;;;;;;;;;;;;;17.84;100.00;100862.69;6127646;23;20595;-79
2023/09/09 04:30:40;;;;;;;;;;;;;;;17.91;100.00;100868.03;6127931;23;19924;-78
2023/09/09 04:33:07;;;;;;;;;;;;;;;17.92;100.00;100872.31;6126944;23;19991;-79
2023/09/09 04:35:35;;;;;;;;;;;;;;;17.92;100.00;100874.13;6126539;23;20256;-79
2023/09/09 04:38:02;;;;;;;;;;;;;;;17.94;100.00;100870.28;6128286;23;19964;-80
2023/09/09 04:40:28;;;;;;;;;;;;;;;17.92;100.00;100874.13;6128046;23;19952;-81
2023/09/09 04:42:54;;;;;;;;;;;;;;;17.89;100.00;100867.41;6129615;23;19959;-80
2023/09/09 04:45:23;;;;;;;;;;;;;;;17.88;100.00;100879.81;6129596;23;20009;-80
2023/09/09 04:47:49;;;;;;;;;;;;;;;17.89;100.00;100875.34;6129376;23;19917;-79
2023/09/09 04:50:16;;;;;;;;;;;;;;;17.88;100.00;100893.06;6128463;23;19936;-79
2023/09/09 04:52:44;;;;;;;;;;;;;;;17.85;100.00;100892.63;6128416;23;19916;-79
2023/09/09 04:55:10;;;;;;;;;;;;;;;17.86;100.00;100891.63;6127082;23;19917;-80
2023/09/09 04:57:36;;;;;;;;;;;;;;;17.89;100.00;100888.59;6127781;23;19947;-78
2023/09/09 05:00:06;;;;;;;;;;;;;;;17.88;100.00;100893.06;6127283;23;20019;-79
2023/09/09 05:02:33;;;;;;;;;;;;;;;17.89;100.00;100891.22;6127414;23;19983;-80
2023/09/09 05:04:59;;;;;;;;;;;;;;;17.95;100.00;100887.81;6128258;23;19917;-79
2023/09/09 05:07:27;;;;;;;;;;;;;;;17.92;100.00;100893.50;6126336;23;19948;-78
2023/09/09 05:09:55;;;;;;;;;;;;;;;17.91;100.00;100889.22;6122785;23;19925;-80
2023/09/09 05:12:21;;;;;;;;;;;;;;;17.94;100.00;100902.06;6125556;23;20317;-79
2023/09/09 05:14:48;;;;;;;;;;;;;;;17.97;100.00;100898.16;6125659;23;19992;-80
2023/09/09 05:17:14;;;;;;;;;;;;;;;18.01;100.00;100896.75;6125729;23;19920;-80
2023/09/09 05:19:41;;;;;;;;;;;;;;;18.05;100.00;100896.16;6124115;23;19964;-80
2023/09/09 05:22:07;;;;;;;;;;;;;;;18.07;100.00;100903.91;6127221;23;19978;-78
2023/09/09 05:24:34;;;;;;;;;;;;;;;18.07;100.00;100911.84;6136705;23;19928;-77
2023/09/09 05:27:01;;;;;;;;;;;;;;;18.12;100.00;100912.91;6127961;23;19961;-81
2023/09/09 05:29:28;;;;;;;;;;;;;;;18.17;100.00;100913.13;6125932;23;19916;-77
2023/09/09 05:31:54;;;;;;;;;;;;;;;18.23;100.00;100916.81;6124170;23;20341;-80
2023/09/09 05:34:21;;;;;;;;;;;;;;;18.30;100.00;100927.44;6124282;23;19916;-77
2023/09/09 05:36:47;;;;;;;;;;;;;;;18.39;100.00;100926.25;6125886;23;19920;-78
2023/09/09 05:39:14;;;;;;;;;;;;;;;18.47;100.00;100928.69;6125446;23;20290;-78
2023/09/09 05:41:40;;;;;;;;;;;;;;;18.51;100.00;100925.44;6123924;23;19964;-79
2023/09/09 05:44:08;;;;;;;;;;;;;;;18.57;100.00;100921.16;6125278;23;20329;-79
2023/09/09 05:46:34;;;;;;;;;;;;;;;18.64;100.00;100929.97;6126751;23;19951;-77
2023/09/09 05:49:01;;;;;;;;;;;;;;;18.73;100.00;100928.78;6126207;23;19957;-80
2023/09/09 05:51:27;;;;;;;;;;;;;;;18.84;100.00;100922.06;6125531;23;19917;-78
2023/09/09 05:53:54;;;;;;;;;;;;;;;18.87;99.63;100924.31;6127228;23;19917;-77
2023/09/09 05:56:20;;;;;;;;;;;;;;;18.93;99.30;100935.91;6126705;23;20007;-80
2023/09/09 05:58:47;;;;;;;;;;;;;;;18.96;99.11;100933.66;6126494;23;20349;-78
2023/09/09 06:01:15;;;;;;;;;;;;;;;19.01;98.84;100930.41;6125063;23;19960;-78
2023/09/09 06:03:41;;;;;;;;;;;;;;;19.13;98.32;100928.78;6125358;23;19917;-81
2023/09/09 06:06:08;;;;;;;;;;;;;;;19.22;97.69;100933.69;6125855;23;19916;-79
2023/09/09 06:08:34;;;;;;;;;;;;;;;19.35;96.86;100935.50;6126726;23;19923;-78
2023/09/09 06:11:01;;;;;;;;;;;;;;;19.44;95.80;100934.25;6124259;23;19942;-78
2023/09/09 06:13:27;;;;;;;;;;;;;;;19.58;95.01;100928.97;6123737;23;19972;-77
2023/09/09 06:15:54;;;;;;;;;;;;;;;19.74;94.44;100939.13;6123540;23;20039;-79
2023/09/09 06:18:21;;;;;;;;;;;;;;;19.77;93.66;100928.09;6123316;23;19984;-82
2023/09/09 06:20:48;;;;;;;;;;;;;;;20.40;92.09;100926.41;6126700;23;19951;-78
2023/09/09 06:23:14;;;;;;;;;;;;;;;21.05;88.83;100924.31;6128929;23;19955;-81
2023/09/09 06:25:41;;;;;;;;;;;;;;;22.04;85.18;100914.53;6129417;23;19964;-82
2023/09/09 06:28:08;;;;;;;;;;;;;;;22.61;81.92;100909.63;6132208;23;19917;-80
2023/09/09 06:30:34;;;;;;;;;;;;;;;22.52;80.18;100901.94;6133936;23;19917;-78
2023/09/09 06:33:01;;;;;;;;;;;;;;;22.93;79.86;100904.84;6135140;23;19916;-83
2023/09/09 06:35:29;;;;;;;;;;;;;;;23.68;77.47;100913.75;6134130;23;19917;-81
2023/09/09 06:37:56;;;;;;;;;;;;;;;23.77;76.15;100906.19;6130372;23;19923;-78
2023/09/09 06:40:23;;;;;;;;;;;;;;;23.78;76.04;100911.28;6124782;23;19940;-77
2023/09/09 06:42:50;;;;;;;;;;;;;;;24.56;73.94;100904.50;6124237;23;19939;-79
2023/09/09 06:45:16;;;;;;;;;;;;;;;23.93;74.82;100905.44;6125190;23;19988;-78
2023/09/09 06:47:44;;;;;;;;;;;;;;;23.90;75.24;100913.94;6126233;23;19999;-80
2023/09/09 06:50:10;;;;;;;;;;;;;;;24.36;74.44;100909.50;6124529;23;20019;-77
2023/09/09 06:52:38;;;;;;;;;;;;;;;25.03;73.12;100913.06;6122939;23;19924;-80
2023/09/09 06:55:05;;;;;;;;;;;;;;;25.29;71.05;100908.88;6130787;23;19917;-77
2023/09/09 06:57:31;;;;;;;;;;;;;;;25.40;70.99;100915.19;6130844;23;19927;-80
2023/09/09 06:59:58;;;;;;;;;;;;;;;25.87;70.92;100920.91;6128563;23;19948;-81
2023/09/09 07:02:24;;;;;;;;;;;;;;;25.19;71.89;100935.50;6126539;23;19952;-82
2023/09/09 07:04:51;;;;;;;;;;;;;;;25.46;70.88;100920.38;6125485;23;19991;-78
2023/09/09 07:07:17;;;;;;;;;;;;;;;25.18;71.29;100917.81;6126379;23;19975;-79
2023/09/09 07:09:45;;;;;;;;;;;;;;;25.07;71.30;100924.06;6127337;23;19927;-78
2023/09/09 07:12:11;;;;;;;;;;;;;;;25.81;69.91;100913.06;6127865;23;19917;-78
2023/09/09 07:14:38;;;;;;;;;;;;;;;26.53;68.03;100908.19;6124393;23;19963;-78
2023/09/09 07:17:04;;;;;;;;;;;;;;;26.10;67.94;100904.53;6124212;23;19916;-79
2023/09/09 07:19:31;;;;;;;;;;;;;;;26.56;68.11;100929.16;6124795;23;19988;-81
2023/09/09 07:21:57;;;;;;;;;;;;;;;27.18;67.33;100923.22;6125491;23;19967;-82
2023/09/09 07:24:24;;;;;;;;;;;;;;;27.61;65.35;100913.28;6125801;23;20000;-79
2023/09/09 07:26:51;;;;;;;;;;;;;;;26.73;nan;100916.44;6129341;23;19944;-80
2023/09/09 07:29:18;;;;;;;;;;;;;;;26.66;68.59;100934.63;6129711;23;19953;-79
2023/09/09 07:31:44;;;;;;;;;;;;;;;27.75;66.41;100930.56;6130604;23;19960;-77
2023/09/09 07:34:11;;;;;;;;;;;;;;;27.78;64.59;100913.91;6127321;23;19995;-78
2023/09/09 07:46:11;;;;;;;;;;;;;;;28.37;65.10;100911.63;6068833;23;19933;-81
2023/09/09 07:48:38;;;;;;;;;;;;;;;27.58;65.01;100924.53;6130028;23;19917;-82
2023/09/09 07:51:05;;;;;;;;;;;;;;;28.55;63.93;100904.94;6134532;23;19971;-79
2023/09/09 07:53:31;;;;;;;;;;;;;;;28.59;62.84;100908.69;6132959;23;19936;-81
2023/09/09 07:55:58;;;;;;;;;;;;;;;27.75;64.40;100914.41;6131800;23;20289;-82
2023/09/09 07:58:24;;;;;;;;;;;;;;;27.60;65.62;100922.41;6131267;23;19991;-81
2023/09/09 08:00:58;;;;;;;;;;;;;;;28.24;64.13;100916.75;6130856;23;20192;-81
2023/09/09 08:03:24;;;;;;;;;;;;;;;28.43;64.32;100915.13;6132076;23;19921;-79
2023/09/09 08:05:55;;;;;;;;;;;;;;;29.34;62.61;100917.78;6132638;23;19944;-81
2023/09/09 08:08:22;;;;;;;;;;;;;;;29.70;61.40;100909.63;6132011;23;19924;-80
2023/09/09 08:10:49;;;;;;;;;;;;;;;29.30;61.38;100913.25;6132298;23;19925;-79
2023/09/09 08:13:16;;;;;;;;;;;;;;;27.88;63.68;100921.19;6131134;23;19923;-81
2023/09/09 08:15:42;;;;;;;;;;;;;;;27.27;66.10;100926.25;6130962;23;19960;-80
2023/09/09 08:18:08;;;;;;;;;;;;;;;28.56;64.51;100930.78;6154613;23;19951;-84
2023/09/09 08:20:35;;;;;;;;;;;;;;;29.25;63.06;100915.94;6162442;23;19917;-80
2023/09/09 08:23:03;;;;;;;;;;;;;;;28.71;63.63;100922.72;6162567;23;20336;-84
2023/09/09 08:25:32;;;;;;;;;;;;;;;28.97;62.97;100917.31;6163134;23;19917;-82
2023/09/09 08:27:59;;;;;;;;;;;;;;;29.73;62.24;100916.34;6161237;23;19932;-83
2023/09/09 08:30:25;;;;;;;;;;;;;;;29.88;61.43;100917.06;6161106;23;19959;-83
2023/09/09 08:32:52;;;;;;;;;;;;;;;28.53;62.62;100920.53;6161871;23;19935;-83
2023/09/09 08:35:19;;;;;;;;;;;;;;;28.35;63.64;100923.75;6171816;23;19982;-82
2023/09/09 08:37:45;;;;;;;;;;;;;;;28.90;62.82;100914.09;6169400;23;19917;-83
2023/09/09 08:40:13;;;;;;;;;;;;;;;28.85;63.36;100924.88;6171384;23;19948;-81
2023/09/09 08:42:47;;;;;;;;;;;;;;;29.56;62.41;100920.19;6166029;23;19923;-83
2023/09/09 08:45:18;;;;;;;;;;;;;;;30.04;61.37;100918.63;6164472;23;19943;-82
2023/09/09 08:47:45;;;;;;;;;;;;;;;30.43;60.52;100909.75;6163622;23;19940;-83
2023/09/09 08:50:14;;;;;;;;;;;;;;;30.25;60.73;100903.09;6162555;23;19924;-84
2023/09/09 08:52:41;;;;;;;;;;;;;;;29.10;61.89;100910.56;6163762;23;20276;-83
2023/09/09 08:55:08;;;;;;;;;;;;;;;28.73;62.74;100914.34;6165298;23;19916;-83
2023/09/09 08:57:36;;;;;;;;;;;;;;;28.69;62.85;100916.78;6164150;23;19959;-81
2023/09/09 09:00:03;;;;;;;;;;;;;;;28.88;63.38;100919.75;6164385;23;19923;-84
2023/09/09 09:02:30;;;;;;;;;;;;;;;29.72;61.83;100915.53;6163247;23;20244;-83
2023/09/09 09:04:57;;;;;;;;;;;;;;;29.55;61.91;100915.88;6164634;23;19967;-84
2023/09/09 09:07:27;;;;;;;;;;;;;;;29.29;62.78;100922.41;6164207;23;19944;-82
2023/09/09 09:09:54;;;;;;;;;;;;;;;29.24;62.58;100915.13;6164004;23;19979;-81
2023/09/09 09:12:21;;;;;;;;;;;;;;;30.02;62.28;100926.19;6162916;23;19924;-83
2023/09/09 09:14:48;;;;;;;;;;;;;;;29.62;62.10;100915.56;6162539;23;20265;-83
2023/09/09 09:17:15;;;;;;;;;;;;;;;29.69;61.32;100919.59;6162363;23;19944;-83
2023/09/09 09:19:42;;;;;;;;;;;;;;;28.82;63.11;100925.44;6162920;23;19916;-83
2023/09/09 09:22:09;;;;;;;;;;;;;;;28.64;64.23;100919.47;6163022;23;19960;-81
2023/09/09 09:24:41;;;;;;;;;;;;;;;29.50;63.35;100932.06;6163120;23;19920;-83
2023/09/09 09:27:09;;;;;;;;;;;;;;;29.83;62.78;100927.88;6161963;23;19940;-81
2023/09/09 09:29:39;;;;;;;;;;;;;;;29.47;63.18;100923.72;6163111;23;20345;-83
2023/09/09 09:32:07;;;;;;;;;;;;;;;29.69;62.99;100925.00;6162433;23;19916;-83
2023/09/09 09:34:34;;;;;;;;;;;;;;;29.55;62.87;100920.47;6161773;23;19927;-78
2023/09/09 09:37:03;;;;;;;;;;;;;;;29.42;62.56;100904.84;6161783;23;19979;-82
2023/09/09 09:39:33;;;;;;;;;;;;;;;29.31;62.83;100902.16;6162617;23;19928;-80
2023/09/09 09:41:59;;;;;;;;;;;;;;;29.26;63.92;100912.97;6162576;23;19952;-80
2023/09/09 09:44:26;;;;;;;;;;;;;;;28.69;63.79;100903.31;6162478;23;19991;-82
2023/09/09 09:46:58;;;;;;;;;;;;;;;29.07;63.64;100903.84;6164562;23;19916;-80
2023/09/09 09:49:32;;;;;;;;;;;;;;;28.41;65.76;100907.31;6165533;23;20293;-82
2023/09/09 09:51:58;;;;;;;;;;;;;;;28.65;66.53;100922.97;6165992;23;19928;-82
2023/09/09 09:54:25;;;;;;;;;;;;;;;29.15;64.50;100903.28;6167409;23;19927;-84
2023/09/09 09:56:52;;;;;;;;;;;;;;;29.45;65.33;100913.19;6169137;23;19917;-80
2023/09/09 09:59:20;;;;;;;;;;;;;;;29.72;63.48;100899.34;6171559;23;19916;-85
2023/09/09 10:01:48;;;;;;;;;;;;;;;30.00;63.10;100906.78;6171205;23;19917;-83
2023/09/09 10:04:17;;;;;;;;;;;;;;;30.08;62.81;100904.59;6170545;23;19917;-83
2023/09/09 10:06:46;;;;;;;;;;;;;;;30.32;62.41;100909.00;6170837;23;19916;-84
2023/09/09 10:09:23;;;;;;;;;;;;;;;29.85;63.43;100906.81;6173703;23;19924;-83
2023/09/09 10:11:54;;;;;;;;;;;;;;;30.09;63.35;100906.19;6170637;23;19920;-82
2023/09/09 10:14:25;;;;;;;;;;;;;;;30.25;63.29;100913.91;6160318;23;19920;-83
2023/09/09 10:16:54;;;;;;;;;;;;;;;30.10;61.37;100884.34;6165145;23;19920;-83
2023/09/09 10:19:25;;;;;;;;;;;;;;;30.31;62.27;100895.78;6167625;23;19917;-83
2023/09/09 10:21:56;;;;;;;;;;;;;;;30.52;61.65;100891.84;6165507;23;19944;-82
2023/09/09 10:24:23;;;;;;;;;;;;;;;30.37;62.74;100894.66;6163846;23;19916;-83
2023/09/09 10:26:50;;;;;;;;;;;;;;;30.31;61.88;100887.69;6166380;23;19927;-83
2023/09/09 10:29:18;;;;;;;;;;;;;;;30.39;62.08;100887.09;6167182;23;19944;-84
2023/09/09 10:31:44;;;;;;;;;;;;;;;30.02;61.64;100874.94;6166797;23;20337;-81
2023/09/09 10:34:15;;;;;;;;;;;;;;;30.04;62.20;100886.25;6164540;23;19967;-83
2023/09/09 10:36:45;;;;;;;;;;;;;;;30.32;62.40;100881.19;6167158;23;19917;-83
2023/09/09 10:39:15;;;;;;;;;;;;;;;30.20;62.01;100878.88;6175584;23;19923;-84
2023/09/09 10:41:44;;;;;;;;;;;;;;;30.47;62.20;100889.19;6174708;23;19916;-83
2023/09/09 10:44:15;;;;;;;;;;;;;;;30.52;60.97;100870.25;6168584;23;19932;-82
2023/09/09 10:46:43;;;;;;;;;;;;;;;30.63;60.66;100860.19;6169939;23;19936;-83
2023/09/09 10:49:09;;;;;;;;;;;;;;;30.46;61.39;100874.06;6169528;23;19923;-84
2023/09/09 10:51:45;;;;;;;;;;;;;;;30.75;61.58;100881.41;6164423;23;20332;-83
2023/09/09 10:54:15;;;;;;;;;;;;;;;30.53;60.48;100865.66;6169232;23;19991;-83
2023/09/09 10:56:46;;;;;;;;;;;;;;;30.67;61.01;100877.44;6170408;23;19923;-84
2023/09/09 10:59:16;;;;;;;;;;;;;;;30.68;61.43;100877.16;6170181;23;19924;-84
2023/09/09 11:01:43;;;;;;;;;;;;;;;30.69;61.23;100886.88;6169869;23;19922;-84
2023/09/09 11:04:18;;;;;;;;;;;;;;;30.85;61.15;100884.03;6168926;23;19924;-84
2023/09/09 11:06:58;;;;;;;;;;;;;;;30.69;61.45;100876.06;6168819;23;19944;-83
2023/09/09 11:09:30;;;;;;;;;;;;;;;30.31;61.10;100875.00;6170159;23;19916;-84
2023/09/09 11:11:56;;;;;;;;;;;;;;;30.77;60.74;100876.53;6169755;23;19917;-84
2023/09/09 11:14:23;;;;;;;;;;;;;;;30.87;61.59;100884.53;6170502;23;19916;-84
2023/09/09 11:16:54;;;;;;;;;;;;;;;30.87;61.08;100879.94;6170810;23;19927;-84
2023/09/09 11:19:23;;;;;;;;;;;;;;;30.87;60.57;100871.03;6169661;23;19955;-84
2023/09/09 11:21:51;;;;;;;;;;;;;;;30.80;60.35;100865.16;6169271;23;19944;-82
2023/09/09 11:24:17;;;;;;;;;;;;;;;30.76;60.60;100864.09;6167314;23;19967;-83
2023/09/09 11:26:46;;;;;;;;;;;;;;;30.95;61.68;100875.81;6167925;23;19916;-83
2023/09/09 11:29:13;;;;;;;;;;;;;;;31.12;60.47;100861.88;6164972;23;19916;-84
2023/09/09 11:31:39;;;;;;;;;;;;;;;31.02;60.43;100868.19;6167317;23;20082;-82
2023/09/09 11:34:06;;;;;;;;;;;;;;;30.83;59.77;100861.88;6165730;23;19936;-83
2023/09/09 11:36:33;;;;;;;;;;;;;;;31.16;59.79;100862.94;6165686;23;19955;-82
2023/09/09 11:39:01;;;;;;;;;;;;;;;31.31;59.21;100860.84;6167233;23;19940;-83
2023/09/09 11:41:28;;;;;;;;;;;;;;;31.43;58.77;100859.63;6166429;23;19947;-83
2023/09/09 11:44:00;;;;;;;;;;;;;;;31.71;58.83;100868.75;6164894;23;19959;-81
2023/09/09 11:46:27;;;;;;;;;;;;;;;31.54;58.79;100869.22;6168553;23;19923;-82
2023/09/09 11:48:53;;;;;;;;;;;;;;;31.29;59.06;100859.50;6168172;23;19964;-83
2023/09/09 11:51:20;;;;;;;;;;;;;;;31.53;59.17;100856.81;6165153;23;19967;-83
2023/09/09 11:53:47;;;;;;;;;;;;;;;31.73;58.55;100861.16;6167316;23;20249;-82
2023/09/09 11:56:14;;;;;;;;;;;;;;;31.73;57.96;100856.53;6166083;23;19916;-82
2023/09/09 11:58:41;;;;;;;;;;;;;;;31.73;58.17;100856.53;6164719;23;19931;-81
2023/09/09 12:01:12;;;;;;;;;;;;;;;31.97;57.98;100861.91;6166660;23;19916;-82
2023/09/09 12:03:38;;;;;;;;;;;;;;;32.05;56.99;100846.91;6166923;23;19916;-80
2023/09/09 12:06:06;;;;;;;;;;;;;;;31.78;57.58;100850.25;6166297;23;19920;-82
2023/09/09 12:08:32;;;;;;;;;;;;;;;31.69;57.56;100844.69;6164436;23;20284;-83
2023/09/09 12:10:59;;;;;;;;;;;;;;;31.45;57.39;100839.31;6162734;23;19924;-81
2023/09/09 12:13:26;;;;;;;;;;;;;;;31.65;58.07;100843.66;6162600;23;19940;-81
2023/09/09 12:15:53;;;;;;;;;;;;;;;31.84;57.82;100851.81;6170065;23;19917;-83
2023/09/09 12:18:20;;;;;;;;;;;;;;;31.88;57.78;100847.41;6171841;23;19916;-81
2023/09/09 12:21:00;;;;;;;;;;;;;;;31.81;57.74;100845.06;6172540;23;19917;-82
2023/09/09 12:23:27;;;;;;;;;;;;;;;31.70;57.99;100851.72;6168090;23;19917;-82
2023/09/09 12:25:54;;;;;;;;;;;;;;;31.67;58.13;100844.97;6172033;23;19925;-84
2023/09/09 12:28:20;;;;;;;;;;;;;;;31.80;57.60;100839.94;6168488;23;19925;-83
2023/09/09 12:30:47;;;;;;;;;;;;;;;31.80;57.40;100837.25;6169135;23;19952;-83
2023/09/09 12:33:14;;;;;;;;;;;;;;;31.62;56.71;100833.41;6167138;23;20272;-83
2023/09/09 12:35:43;;;;;;;;;;;;;;;31.83;56.32;100832.06;6167657;23;19952;-83
2023/09/09 12:38:10;;;;;;;;;;;;;;;31.95;56.02;100832.41;6167029;23;20376;-80
2023/09/09 12:40:47;;;;;;;;;;;;;;;32.03;55.83;100816.63;6165848;23;20372;-83
2023/09/09 12:43:13;;;;;;;;;;;;;;;32.07;55.47;100829.28;6166542;23;20320;-82
2023/09/09 12:45:44;;;;;;;;;;;;;;;32.04;55.45;100823.63;6164503;23;19924;-82